Time;durP1;ratioP1;P1;durP2;ratioP2;P2;SDS_P1;SDS_P2;PMS_P1;PMS_P2;Temp;Humidity;BMP_temperature;BMP_pressure;BME280_temperature;BME280_humidity;BME280_pressure;Samples;Min_cycle;Max_cycle;Signal;HPM_P1;HPM_P2
2022/12/25 00:02:05;;;;;;;;;27.75;27.75;;;;;11.88;89.18;100523.88;5035362;28;45386;-65
2022/12/25 00:04:30;;;;;;;;;27.50;27.50;;;;;11.92;89.04;100525.44;5019000;28;45601;-66
2022/12/25 00:06:55;;;;;;;;;22.50;22.50;;;;;11.92;89.04;100528.06;5034758;28;58225;-63
2022/12/25 00:09:21;;;;;;;;;27.50;27.50;;;;;11.93;89.28;100528.94;5034944;28;45440;-67
2022/12/25 00:11:46;;;;;;;;;26.75;26.75;;;;;11.94;88.96;100522.75;5034803;28;45270;-67
2022/12/25 00:14:12;;;;;;;;;25.75;25.75;;;;;11.88;89.07;100509.84;5035407;28;45304;-67
2022/12/25 00:16:37;;;;;;;;;28.00;27.00;;;;;11.93;88.93;100513.97;5035295;28;45459;-69
2022/12/25 00:19:02;;;;;;;;;21.75;21.75;;;;;11.94;89.06;100514.84;5035059;28;49834;-70
2022/12/25 00:21:28;;;;;;;;;25.75;25.75;;;;;11.94;89.18;100513.03;5034704;28;45445;-69
2022/12/25 00:23:56;;;;;;;;;24.50;24.50;;;;;11.94;89.14;100526.22;5034795;28;45186;-67
2022/12/25 00:26:21;;;;;;;;;23.75;23.75;;;;;11.95;89.45;100520.03;5034753;28;46560;-70
2022/12/25 00:28:47;;;;;;;;;25.25;25.25;;;;;11.95;89.00;100516.56;5034494;28;45491;-68
2022/12/25 00:31:15;;;;;;;;;32.75;31.75;;;;;11.93;89.25;100505.22;5034743;28;45229;-64
2022/12/25 00:33:43;;;;;;;;;31.00;30.00;;;;;11.90;88.70;100500.94;5016886;28;45462;-68
2022/12/25 00:36:09;;;;;;;;;24.75;24.75;;;;;11.96;88.92;100499.81;5034508;28;45235;-67
2022/12/25 00:38:37;;;;;;;;;21.00;21.00;;;;;11.92;89.13;100504.34;5034693;28;45261;-62
2022/12/25 00:44:07;;;;;;;;;23.50;23.50;;;;;11.92;89.09;100517.53;5034959;28;45183;-62
2022/12/25 00:46:33;;;;;;;;;18.00;18.00;;;;;11.95;88.91;100521.81;5034608;28;46102;-63
2022/12/25 00:48:59;;;;;;;;;21.00;21.00;;;;;11.96;89.51;100518.25;5016338;28;45438;-62
2022/12/25 00:51:25;;;;;;;;;20.50;20.50;;;;;11.97;89.05;100520.81;5035348;28;45399;-63
2022/12/25 00:53:50;;;;;;;;;24.75;24.75;;;;;11.98;88.94;100504.06;5034617;28;45380;-67
2022/12/25 00:56:15;;;;;;;;;20.50;20.50;;;;;11.99;88.98;100502.28;5034550;28;45523;-65
2022/12/25 00:58:40;;;;;;;;;24.00;23.75;;;;;11.96;88.81;100495.38;5034270;28;45407;-66
2022/12/25 01:01:08;;;;;;;;;19.50;19.50;;;;;12.02;89.01;100490.75;5034015;28;56382;-66
2022/12/25 01:03:33;;;;;;;;;22.25;22.25;;;;;12.05;88.97;100490.63;5034886;28;45407;-64
2022/12/25 01:06:04;;;;;;;;;23.75;22.25;;;;;12.05;88.81;100483.59;5034199;28;45366;-65
2022/12/25 01:08:32;;;;;;;;;21.25;21.25;;;;;12.06;88.63;100480.03;5016107;28;45344;-63
2022/12/25 01:11:01;;;;;;;;;20.75;20.75;;;;;12.09;88.69;100500.97;5034642;28;45296;-62
2022/12/25 01:13:27;;;;;;;;;22.00;22.00;;;;;12.04;88.69;100478.38;5016467;28;45370;-69
2022/12/25 01:15:53;;;;;;;;;25.00;25.00;;;;;12.07;88.25;100484.38;5033911;28;45280;-64
2022/12/25 01:18:20;;;;;;;;;30.50;29.75;;;;;12.12;88.57;100490.28;5033957;28;45263;-69
2022/12/25 01:20:46;;;;;;;;;22.50;22.50;;;;;12.15;88.67;100501.59;5034278;28;45364;-65
2022/12/25 01:23:12;;;;;;;;;19.75;19.75;;;;;12.10;88.28;100485.97;5034053;28;45293;-66
2022/12/25 01:25:37;;;;;;;;;22.75;22.25;;;;;12.07;88.43;100480.84;5034327;28;46152;-68
2022/12/25 01:28:02;;;;;;;;;26.50;25.75;;;;;12.10;88.72;100486.84;5033730;28;55818;-70
2022/12/25 01:30:28;;;;;;;;;19.25;19.25;;;;;12.13;88.33;100494.63;5034143;28;45315;-68
2022/12/25 01:32:53;;;;;;;;;25.50;25.50;;;;;12.15;88.53;100499.78;5034224;28;45561;-69
2022/12/25 01:35:18;;;;;;;;;25.50;24.75;;;;;12.16;88.08;100498.03;5037122;28;46054;-67
2022/12/25 01:37:44;;;;;;;;;24.25;24.25;;;;;12.17;88.50;100511.13;5037776;28;45254;-69
2022/12/25 01:40:10;;;;;;;;;26.50;26.00;;;;;12.16;88.60;100511.22;5037807;28;45307;-68
2022/12/25 01:42:35;;;;;;;;;21.25;21.25;;;;;12.11;88.51;100506.16;5037460;28;45395;-69
2022/12/25 01:45:41;;;;;;;;;21.25;21.25;;;;;12.14;88.54;100516.53;5037153;28;46911;-65
2022/12/25 01:48:17;;;;;;;;;25.75;25.75;;;;;12.09;88.53;100508.88;4997080;28;45262;-70
2022/12/25 01:50:46;;;;;;;;;21.25;21.25;;;;;12.12;88.45;100513.13;5036483;28;45494;-68
2022/12/25 01:53:12;;;;;;;;;20.25;20.25;;;;;12.08;88.52;100501.88;5036733;28;45592;-62
2022/12/25 01:55:39;;;;;;;;;21.00;21.00;;;;;12.08;88.43;100496.63;5018796;28;47502;-68
2022/12/25 01:58:05;;;;;;;;;18.75;17.75;;;;;12.09;88.28;100503.59;5018401;28;45392;-69
2022/12/25 02:00:30;;;;;;;;;18.00;18.00;;;;;12.09;88.59;100503.59;5018575;28;45288;-66
2022/12/25 02:02:57;;;;;;;;;14.00;14.00;;;;;12.06;88.55;100506.38;5036745;28;45342;-68
2022/12/25 02:05:31;;;;;;;;;13.50;13.25;;;;;12.04;88.20;100500.31;5036268;28;45454;-68
2022/12/25 02:08:06;;;;;;;;;10.50;10.50;;;;;12.02;88.06;100485.50;5036468;28;45474;-68
2022/12/25 02:10:32;;;;;;;;;11.00;11.00;;;;;11.92;88.30;100464.81;5036328;28;45496;-68
2022/12/25 02:12:58;;;;;;;;;11.50;11.50;;;;;11.93;88.22;100478.88;5036623;28;45229;-69
2022/12/25 02:15:44;;;;;;;;;9.75;9.75;;;;;11.93;88.37;100476.22;5036194;28;46441;-68
2022/12/25 02:18:22;;;;;;;;;11.25;10.50;;;;;11.99;88.46;100491.75;5036471;28;45371;-69
2022/12/25 02:21:06;;;;;;;;;10.50;10.50;;;;;11.98;88.66;100490.88;5036475;28;45312;-65
2022/12/25 02:23:54;;;;;;;;;8.50;8.50;;;;;11.97;88.97;100478.63;5036631;28;45298;-67
2022/12/25 02:26:35;;;;;;;;;11.25;11.00;;;;;12.01;88.41;100482.03;5035970;28;46838;-65
2022/12/25 02:29:16;;;;;;;;;13.75;12.75;;;;;12.01;88.77;100471.47;5036008;28;45370;-63
2022/12/25 02:32:23;;;;;;;;;12.00;12.00;;;;;11.99;88.83;100470.66;5036151;28;45458;-68
2022/12/25 02:35:00;;;;;;;;;11.00;11.00;;;;;12.04;88.71;100488.91;5036156;28;45321;-65
2022/12/25 02:37:28;;;;;;;;;13.00;13.00;;;;;12.05;88.91;100473.03;5035823;28;45313;-66
2022/12/25 02:40:11;;;;;;;;;15.00;15.00;;;;;12.08;88.59;100466.75;5035914;28;45362;-64
2022/12/25 03:08:20;;;;;;;;;13.25;13.25;;;;;12.11;89.54;100461.31;5035874;28;45393;-63
2022/12/25 03:13:41;;;;;;;;;19.75;19.00;;;;;12.06;89.46;100434.31;5035538;28;45369;-66
2022/12/25 03:18:53;;;;;;;;;15.00;15.00;;;;;12.13;89.58;100436.59;5035203;28;45351;-65
2022/12/25 03:26:55;;;;;;;;;15.50;15.50;;;;;12.16;89.60;100424.19;5035207;28;45410;-65
2022/12/25 03:32:21;;;;;;;;;17.00;17.00;;;;;12.18;89.80;100417.06;5035065;28;45312;-67
2022/12/25 03:35:22;;;;;;;;;18.75;18.50;;;;;12.01;89.93;100396.78;5035244;28;45179;-64
2022/12/25 04:36:42;;;;;;;;;25.75;25.25;;;;;12.21;89.80;100345.72;5034451;28;45476;-68
2022/12/25 04:39:08;;;;;;;;;25.75;25.75;;;;;12.20;89.96;100344.00;5015959;28;46795;-63
2022/12/25 04:41:34;;;;;;;;;22.25;22.25;;;;;12.20;90.00;100329.06;5034202;28;45282;-64
2022/12/25 04:43:59;;;;;;;;;23.50;23.50;;;;;12.19;90.04;100331.75;5034868;28;45202;-68
2022/12/25 04:46:24;;;;;;;;;28.25;28.25;;;;;12.22;89.76;100339.50;5034483;28;45559;-66
2022/12/25 04:48:50;;;;;;;;;28.25;27.25;;;;;12.18;89.87;100327.41;5033821;28;57843;-70
2022/12/25 04:51:21;;;;;;;;;23.50;23.50;;;;;12.23;89.92;100344.72;5033933;28;45388;-68
2022/12/25 04:53:47;;;;;;;;;26.75;26.75;;;;;12.22;89.88;100361.47;5034472;28;45394;-67
2022/12/25 04:56:13;;;;;;;;;26.00;26.00;;;;;12.20;89.82;100357.19;5034325;28;45496;-68
2022/12/25 04:58:39;;;;;;;;;30.75;27.75;;;;;12.22;89.76;100352.69;5033700;28;45360;-66
2022/12/25 05:01:05;;;;;;;;;28.00;27.50;;;;;12.24;90.10;100364.00;5034015;28;45263;-67
2022/12/25 05:03:31;;;;;;;;;27.25;27.25;;;;;12.23;89.40;100352.63;5033910;28;45416;-62
2022/12/25 05:05:56;;;;;;;;;34.50;31.25;;;;;12.27;90.07;100345.41;5034073;28;45177;-66
2022/12/25 05:08:22;;;;;;;;;27.00;26.00;;;;;12.26;89.89;100343.69;5034782;28;46092;-64
2022/12/25 05:10:48;;;;;;;;;30.25;30.25;;;;;12.25;89.96;100313.84;5037764;28;45413;-62
2022/12/25 05:13:13;;;;;;;;;31.50;30.75;;;;;12.25;89.78;100283.97;5037463;28;45222;-64
2022/12/25 05:15:39;;;;;;;;;29.75;29.00;;;;;12.22;89.83;100269.19;5037518;28;45374;-62
2022/12/25 05:18:05;;;;;;;;;27.75;27.75;;;;;12.22;89.56;100263.03;5037130;28;45422;-63
2022/12/25 05:20:30;;;;;;;;;24.75;24.75;;;;;12.20;89.69;100265.78;5037158;28;45285;-66
2022/12/25 05:22:55;;;;;;;;;25.25;25.25;;;;;12.18;89.84;100286.06;5037108;28;45341;-70
2022/12/25 05:25:20;;;;;;;;;26.75;25.25;;;;;12.20;89.86;100299.19;5037167;28;56376;-68
2022/12/25 05:27:46;;;;;;;;;30.00;28.50;;;;;11.99;89.80;100276.44;5037003;28;46440;-66
2022/12/25 05:30:11;;;;;;;;;26.50;25.25;;;;;12.17;90.07;100304.63;5036820;28;58054;-66
2022/12/25 05:32:37;;;;;;;;;31.25;31.00;;;;;12.18;89.79;100298.41;5037348;28;45301;-67
2022/12/25 05:35:02;;;;;;;;;31.00;29.25;;;;;12.19;90.15;100298.31;5036998;28;45658;-67
2022/12/25 05:37:27;;;;;;;;;26.50;25.75;;;;;12.20;89.73;100293.91;5036583;28;46148;-67
2022/12/25 05:39:53;;;;;;;;;30.00;29.75;;;;;12.17;89.91;100280.88;5036520;28;63877;-67
2022/12/25 05:42:18;;;;;;;;;27.25;27.25;;;;;12.18;89.95;100290.50;5037211;28;45286;-65
2022/12/25 05:44:43;;;;;;;;;29.75;28.75;;;;;12.20;90.09;100292.13;5036842;28;47608;-67
2022/12/25 05:47:08;;;;;;;;;30.75;29.00;;;;;12.21;89.92;100317.56;5036468;28;67039;-63
2022/12/25 05:49:34;;;;;;;;;34.25;32.50;;;;;12.20;89.71;100322.91;5037124;28;45377;-68
2022/12/25 05:51:59;;;;;;;;;27.25;26.00;;;;;12.13;89.84;100304.78;5037469;28;45569;-64
2022/12/25 05:54:24;;;;;;;;;25.50;25.50;;;;;12.20;90.08;100309.72;5036945;28;52282;-64
2022/12/25 05:56:50;;;;;;;;;25.25;25.00;;;;;12.15;89.77;100290.66;5036880;28;45446;-68
2022/12/25 05:59:15;;;;;;;;;23.50;23.50;;;;;12.22;90.22;100303.47;5036645;28;45365;-68
2022/12/25 06:01:40;;;;;;;;;20.50;20.50;;;;;12.17;89.94;100284.34;5036447;28;47688;-68
2022/12/25 06:04:05;;;;;;;;;23.75;23.00;;;;;12.19;90.15;100290.41;5036769;28;45629;-66
2022/12/25 06:06:31;;;;;;;;;20.75;20.75;;;;;12.19;90.00;100300.94;5036310;28;45317;-67
2022/12/25 06:08:57;;;;;;;;;22.50;22.50;;;;;12.19;89.83;100294.84;5036268;28;45288;-64
2022/12/25 06:11:22;;;;;;;;;23.75;23.25;;;;;12.12;89.88;100284.59;5036766;28;45177;-64
2022/12/25 06:13:50;;;;;;;;;22.00;22.00;;;;;12.16;90.15;100289.72;5037206;28;45550;-63
2022/12/25 06:16:15;;;;;;;;;28.25;27.25;;;;;12.08;89.89;100269.00;5038443;28;47125;-65
2022/12/25 06:18:44;;;;;;;;;21.50;21.50;;;;;12.17;90.11;100279.09;5036566;28;45395;-64
2022/12/25 06:21:12;;;;;;;;;20.25;20.25;;;;;12.17;90.08;100265.91;5036069;28;45287;-61
2022/12/25 06:23:38;;;;;;;;;20.50;20.50;;;;;12.18;89.84;100258.84;5036016;28;45645;-64
2022/12/25 06:26:11;;;;;;;;;21.00;21.00;;;;;12.19;89.81;100256.13;5035938;28;46122;-64
2022/12/25 06:28:36;;;;;;;;;22.00;22.00;;;;;12.19;89.55;100271.09;5036255;28;45622;-63
2022/12/25 06:31:06;;;;;;;;;21.25;21.25;;;;;12.14;90.04;100255.50;5036240;28;45821;-68
2022/12/25 06:33:31;;;;;;;;;21.25;20.75;;;;;12.13;90.04;100259.94;5036136;28;45471;-70
2022/12/25 06:35:57;;;;;;;;;21.75;21.75;;;;;12.06;90.10;100233.97;5035587;28;46400;-64
2022/12/25 06:38:22;;;;;;;;;20.75;20.75;;;;;12.15;90.15;100237.94;5017956;28;45329;-67
2022/12/25 06:40:47;;;;;;;;;21.25;21.25;;;;;12.12;89.77;100244.19;5036130;28;45384;-69
2022/12/25 06:43:13;;;;;;;;;23.50;21.75;;;;;12.18;89.79;100245.69;5035527;28;45493;-67
2022/12/25 06:45:38;;;;;;;;;20.75;20.75;;;;;12.14;90.32;100231.78;5035390;28;51141;-64
2022/12/25 06:48:03;;;;;;;;;18.25;18.25;;;;;12.13;89.74;100222.16;5035709;28;45346;-66
2022/12/25 06:50:29;;;;;;;;;20.00;20.00;;;;;12.17;89.80;100228.16;5035894;28;45190;-71
2022/12/25 06:52:55;;;;;;;;;16.25;16.25;;;;;12.08;89.89;100221.56;5036408;28;45133;-67
2022/12/25 06:55:20;;;;;;;;;18.00;18.00;;;;;12.15;89.92;100232.66;5035839;28;45376;-67
2022/12/25 06:57:46;;;;;;;;;19.25;19.25;;;;;12.13;89.80;100251.16;5034931;28;63732;-69
2022/12/25 07:00:11;;;;;;;;;16.50;16.50;;;;;12.12;89.77;100252.09;5036131;28;48307;-69
2022/12/25 07:02:37;;;;;;;;;17.50;17.50;;;;;12.06;89.74;100249.78;5038032;28;45199;-66
2022/12/25 07:05:03;;;;;;;;;17.00;17.00;;;;;12.08;89.61;100250.56;5038125;28;46019;-67
2022/12/25 07:07:29;;;;;;;;;16.25;16.25;;;;;12.06;89.73;100260.34;5036619;28;45430;-68
2022/12/25 07:09:54;;;;;;;;;20.75;20.75;;;;;11.98;89.64;100260.72;5035860;28;45400;-64
2022/12/25 07:12:22;;;;;;;;;18.00;17.25;;;;;12.04;89.83;100272.75;5017736;28;45653;-67
2022/12/25 07:14:48;;;;;;;;;15.50;15.50;;;;;12.02;89.38;100266.69;5035109;28;46976;-64
2022/12/25 07:17:18;;;;;;;;;17.50;17.25;;;;;12.04;89.88;100263.06;5035432;28;45350;-69
2022/12/25 07:19:47;;;;;;;;;19.00;19.00;;;;;12.02;89.50;100249.09;5035510;28;45563;-69
2022/12/25 07:22:13;;;;;;;;;15.50;15.50;;;;;12.02;89.73;100237.69;5035343;28;45359;-69
2022/12/25 07:24:38;;;;;;;;;13.50;13.50;;;;;12.03;89.19;100231.50;5035187;28;45496;-66
2022/12/25 07:27:04;;;;;;;;;17.25;17.25;;;;;12.02;89.73;100220.13;5035516;28;45403;-69
2022/12/25 07:29:29;;;;;;;;;18.00;18.00;;;;;11.97;89.47;100193.09;5035405;28;45368;-68
2022/12/25 07:31:54;;;;;;;;;13.00;13.00;;;;;12.01;89.25;100193.81;5034756;28;45558;-68
2022/12/25 07:34:21;;;;;;;;;15.50;15.50;;;;;12.02;89.44;100190.25;5035010;28;46654;-69
2022/12/25 07:36:46;;;;;;;;;17.50;17.00;;;;;11.97;88.84;100186.03;5034811;28;45435;-68
2022/12/25 07:39:12;;;;;;;;;15.25;15.25;;;;;11.99;89.39;100183.34;5035026;28;45252;-68
2022/12/25 07:41:37;;;;;;;;;14.75;14.25;;;;;11.98;89.41;100181.63;5035042;28;45230;-68
2022/12/25 07:44:03;;;;;;;;;14.75;14.75;;;;;11.97;88.97;100174.66;5034631;28;46116;-70
2022/12/25 07:46:28;;;;;;;;;12.25;12.25;;;;;11.98;89.20;100169.28;5035285;28;45343;-69
2022/12/25 07:48:53;;;;;;;;;13.25;13.25;;;;;11.99;89.02;100154.34;5035824;28;45327;-64
2022/12/25 07:51:19;;;;;;;;;15.75;15.75;;;;;11.95;89.29;100155.44;5036992;28;45478;-64
2022/12/25 07:53:44;;;;;;;;;14.75;14.75;;;;;11.96;89.03;100165.88;5034920;28;46292;-64
2022/12/25 07:56:16;;;;;;;;;13.75;13.75;;;;;11.91;88.96;100177.63;5034925;28;45389;-67
2022/12/25 07:58:42;;;;;;;;;14.00;14.00;;;;;11.93;88.99;100205.59;5035038;28;45288;-69
2022/12/25 08:01:11;;;;;;;;;11.50;11.50;;;;;11.95;89.25;100205.50;5034997;28;45470;-63
2022/12/25 08:03:37;;;;;;;;;14.75;14.75;;;;;11.92;88.68;100211.78;5016597;28;47098;-63
2022/12/25 08:06:05;;;;;;;;;14.75;14.75;;;;;11.86;88.65;100214.75;5034782;28;45367;-63
2022/12/25 08:08:30;;;;;;;;;13.25;13.25;;;;;11.86;88.57;100219.19;5034828;28;45318;-65
2022/12/25 08:10:56;;;;;;;;;14.00;14.00;;;;;11.82;88.97;100214.06;5034530;28;45666;-62
2022/12/25 08:13:22;;;;;;;;;14.50;14.25;;;;;11.76;88.73;100205.59;5034304;28;45303;-66
2022/12/25 08:15:47;;;;;;;;;19.00;19.00;;;;;11.83;88.53;100214.91;5034409;28;45341;-63
2022/12/25 08:18:12;;;;;;;;;18.00;18.00;;;;;11.83;88.72;100231.56;5034597;28;45309;-69
2022/12/25 08:20:37;;;;;;;;;14.75;14.75;;;;;11.78;88.76;100230.97;5034823;28;45252;-70
2022/12/25 08:23:03;;;;;;;;;14.25;14.25;;;;;11.81;88.54;100236.06;5034992;28;46260;-67
2022/12/25 08:25:29;;;;;;;;;15.75;15.75;;;;;11.81;88.55;100222.03;5016858;28;45740;-68
2022/12/25 08:27:54;;;;;;;;;14.25;14.25;;;;;11.80;88.28;100226.47;5034057;28;45358;-67
2022/12/25 08:30:19;;;;;;;;;14.50;14.50;;;;;11.81;88.25;100215.00;5034637;28;45305;-71
2022/12/25 08:32:45;;;;;;;;;19.50;19.50;;;;;11.78;88.32;100209.88;5034127;28;46575;-69
2022/12/25 08:35:10;;;;;;;;;14.00;14.00;;;;;11.76;88.58;100200.34;5033900;28;45297;-67
2022/12/25 08:37:35;;;;;;;;;18.25;18.25;;;;;11.74;88.37;100207.47;5034862;28;45320;-67
2022/12/25 08:40:01;;;;;;;;;12.75;12.75;;;;;11.75;88.24;100210.03;5035212;28;45479;-69
2022/12/25 08:42:26;;;;;;;;;17.25;17.25;;;;;11.73;88.23;100204.00;5035476;28;46051;-71
2022/12/25 08:44:51;;;;;;;;;15.00;15.00;;;;;11.74;88.31;100204.84;5038483;28;53070;-69
2022/12/25 08:47:17;;;;;;;;;12.75;12.75;;;;;11.71;87.90;100191.81;5038124;28;45277;-68
2022/12/25 08:49:42;;;;;;;;;12.00;12.00;;;;;11.69;87.78;100195.38;5039373;28;45481;-67
2022/12/25 08:52:07;;;;;;;;;11.75;11.75;;;;;11.67;87.67;100205.16;5037429;28;61238;-70
2022/12/25 08:54:35;;;;;;;;;12.75;12.75;;;;;11.67;87.92;100185.88;5037362;28;55090;-68
2022/12/25 08:57:01;;;;;;;;;14.25;14.25;;;;;11.67;87.74;100191.13;5037882;28;45310;-69
2022/12/25 08:59:26;;;;;;;;;14.00;14.00;;;;;11.65;87.82;100195.59;5037617;28;45567;-69
2022/12/25 09:01:51;;;;;;;;;14.25;14.25;;;;;11.67;87.88;100209.56;5037181;28;46933;-70
2022/12/25 09:04:17;;;;;;;;;13.00;13.00;;;;;11.66;87.55;100221.00;5037046;28;46854;-69
2022/12/25 09:06:42;;;;;;;;;12.00;12.00;;;;;11.64;86.81;100207.94;5038176;28;45343;-71
2022/12/25 09:09:07;;;;;;;;;14.75;14.75;;;;;11.62;86.97;100201.88;5040456;28;45291;-69
2022/12/25 09:11:33;;;;;;;;;16.00;15.75;;;;;11.63;87.31;100186.91;5039249;28;45236;-68
2022/12/25 09:13:59;;;;;;;;;14.50;14.50;;;;;11.60;87.25;100176.53;5037530;28;45231;-71
2022/12/25 09:16:24;;;;;;;;;11.00;11.00;;;;;11.66;87.06;100194.66;5037212;28;45500;-68
2022/12/25 09:18:50;;;;;;;;;15.00;15.00;;;;;11.63;87.22;100211.50;5037269;28;45569;-67
2022/12/25 09:21:16;;;;;;;;;13.00;13.00;;;;;11.66;87.15;100211.34;5036938;28;46228;-65
2022/12/25 09:23:43;;;;;;;;;14.75;13.75;;;;;11.62;86.82;100216.84;5038556;28;45336;-65
2022/12/25 09:26:11;;;;;;;;;15.75;15.75;;;;;11.62;86.57;100220.34;5036977;28;45361;-64
2022/12/25 09:28:37;;;;;;;;;16.75;16.75;;;;;11.64;87.10;100223.75;5037442;28;45520;-69
2022/12/25 09:31:03;;;;;;;;;16.75;16.75;;;;;11.65;86.95;100235.97;5037667;28;45942;-62
2022/12/25 09:33:28;;;;;;;;;12.75;11.75;;;;;11.67;86.56;100220.13;5037428;28;45348;-69
2022/12/25 09:36:02;;;;;;;;;12.50;12.50;;;;;11.64;86.52;100215.84;5037002;28;45327;-69
2022/12/25 09:38:28;;;;;;;;;17.75;17.75;;;;;11.63;86.23;100210.63;5037835;28;45412;-71
2022/12/25 09:41:11;;;;;;;;;15.50;15.50;;;;;11.66;86.36;100213.97;5036766;28;45353;-69
2022/12/25 09:43:45;;;;;;;;;15.00;15.00;;;;;11.62;86.19;100201.03;5036900;28;45333;-67
2022/12/25 09:46:15;;;;;;;;;14.25;14.25;;;;;11.68;86.30;100204.22;5036927;28;45170;-69
2022/12/25 09:48:48;;;;;;;;;12.00;12.00;;;;;11.71;85.87;100202.34;5018917;28;45347;-68
2022/12/25 09:51:15;;;;;;;;;12.50;12.50;;;;;11.71;86.02;100200.59;5036243;28;46135;-69
2022/12/25 09:53:50;;;;;;;;;14.25;14.25;;;;;11.72;86.06;100193.53;5035908;28;45401;-66
2022/12/25 09:56:25;;;;;;;;;19.75;19.75;;;;;11.70;85.36;100201.50;5036597;28;45288;-70
2022/12/25 09:58:52;;;;;;;;;15.50;15.50;;;;;11.75;85.32;100217.94;5036914;28;45445;-70
2022/12/25 10:01:37;;;;;;;;;15.25;15.25;;;;;11.75;85.30;100217.94;5036432;28;46421;-67
2022/12/25 10:04:11;;;;;;;;;11.00;11.00;;;;;11.77;84.99;100213.44;5037127;28;45460;-66
2022/12/25 10:07:01;;;;;;;;;19.50;19.50;;;;;11.79;84.99;100213.34;5036508;28;45342;-67
2022/12/25 10:09:44;;;;;;;;;15.50;14.75;;;;;11.80;85.02;100212.41;5038216;28;45166;-70
2022/12/25 10:12:28;;;;;;;;;14.50;14.50;;;;;11.83;84.88;100205.22;5035713;28;46555;-69
2022/12/25 10:15:00;;;;;;;;;16.00;16.00;;;;;11.88;84.99;100212.03;5035743;28;45468;-70
2022/12/25 10:17:34;;;;;;;;;13.50;13.50;;;;;11.91;84.34;100211.88;5036271;28;45438;-68
2022/12/25 10:20:18;;;;;;;;;14.00;14.00;;;;;11.92;84.30;100201.25;5036356;28;45332;-70
2022/12/25 10:22:49;;;;;;;;;10.75;10.75;;;;;11.95;84.25;100190.53;5036403;28;45716;-70
2022/12/25 10:25:21;;;;;;;;;18.75;18.50;;;;;11.98;84.22;100193.00;5035775;28;45425;-70
2022/12/25 10:27:51;;;;;;;;;15.25;15.25;;;;;11.99;83.92;100192.09;5035868;28;45308;-68
2022/12/25 10:30:20;;;;;;;;;12.75;12.75;;;;;12.02;83.85;100195.53;5035706;28;45403;-68
2022/12/25 10:32:46;;;;;;;;;14.75;14.75;;;;;12.04;83.76;100186.63;5035583;28;46907;-70
2022/12/25 10:35:15;;;;;;;;;13.75;13.75;;;;;12.04;83.90;100183.97;5036177;28;45393;-70
2022/12/25 10:37:41;;;;;;;;;13.50;13.50;;;;;12.08;83.58;100174.09;5019249;28;45340;-69
2022/12/25 10:40:31;;;;;;;;;18.75;18.75;;;;;12.10;83.27;100183.66;5040128;28;45415;-69
2022/12/25 10:43:07;;;;;;;;;14.25;14.25;;;;;12.12;83.24;100196.75;5035673;28;46309;-69
2022/12/25 10:45:45;;;;;;;;;28.25;28.00;;;;;12.15;83.20;100206.28;5035358;28;45473;-68
2022/12/25 10:48:24;;;;;;;;;13.00;13.00;;;;;12.19;82.60;100197.28;5035138;28;45282;-68
2022/12/25 10:50:49;;;;;;;;;14.75;14.75;;;;;12.20;82.60;100183.16;5035682;28;45478;-69
2022/12/25 10:53:22;;;;;;;;;12.25;12.25;;;;;12.24;82.46;100169.75;5035362;28;46899;-68
2022/12/25 10:56:01;;;;;;;;;13.50;13.50;;;;;12.32;82.11;100169.31;5036939;28;45208;-70
2022/12/25 10:58:28;;;;;;;;;11.25;11.25;;;;;12.39;82.15;100183.03;5035382;28;45426;-63
2022/12/25 11:00:59;;;;;;;;;12.75;12.75;;;;;12.44;82.05;100175.72;5017451;28;45351;-63
2022/12/25 11:03:33;;;;;;;;;12.00;12.00;;;;;12.38;81.42;100176.88;5034930;28;46185;-64
2022/12/25 11:06:00;;;;;;;;;15.00;15.00;;;;;12.48;81.59;100189.56;5034080;28;45396;-67
2022/12/25 11:08:28;;;;;;;;;18.00;17.25;;;;;12.54;81.20;100192.75;5035025;28;45295;-63
2022/12/25 11:11:04;;;;;;;;;12.25;12.25;;;;;12.57;80.90;100168.84;5035247;28;45483;-66
2022/12/25 11:13:33;;;;;;;;;14.00;13.25;;;;;12.59;80.47;100179.28;5035297;28;45288;-65
2022/12/25 11:16:11;;;;;;;;;11.50;11.00;;;;;12.65;80.36;100173.66;5017603;28;45258;-68
2022/12/25 11:18:48;;;;;;;;;13.25;13.25;;;;;12.61;80.36;100156.31;5035623;28;45381;-69
2022/12/25 11:21:16;;;;;;;;;11.00;11.00;;;;;12.71;79.95;100181.25;5035514;28;45432;-69
2022/12/25 11:23:47;;;;;;;;;13.00;13.00;;;;;12.73;79.71;100175.06;5035001;28;46468;-68
2022/12/25 11:26:17;;;;;;;;;14.25;14.25;;;;;12.73;79.71;100185.63;5035083;28;45407;-67
2022/12/25 11:28:44;;;;;;;;;8.00;8.00;;;;;12.74;79.53;100192.59;5035173;28;45243;-66
2022/12/25 11:31:19;;;;;;;;;9.75;9.75;;;;;12.69;79.53;100204.22;5035732;28;45429;-70
2022/12/25 11:34:04;;;;;;;;;10.25;10.25;;;;;12.71;79.30;100212.91;5034788;28;46414;-68
2022/12/25 11:36:50;;;;;;;;;12.50;12.50;;;;;12.69;79.54;100221.88;5035089;28;45294;-70
2022/12/25 11:39:34;;;;;;;;;12.50;12.00;;;;;12.71;79.29;100220.81;5034712;28;45327;-67
2022/12/25 11:42:19;;;;;;;;;16.25;16.00;;;;;12.71;79.25;100222.63;5034836;28;45265;-68
2022/12/25 11:44:54;;;;;;;;;14.50;14.50;;;;;12.73;79.37;100222.56;5035020;28;46119;-64
2022/12/25 11:47:31;;;;;;;;;12.00;12.00;;;;;12.73;79.05;100226.03;5035340;28;45424;-67
2022/12/25 11:50:01;;;;;;;;;12.00;12.00;;;;;12.71;79.17;100222.63;5035537;28;45392;-72
2022/12/25 11:52:32;;;;;;;;;15.00;15.00;;;;;12.74;79.09;100221.63;5035753;28;45513;-70
2022/12/25 11:55:19;;;;;;;;;17.25;17.25;;;;;12.75;79.38;100220.69;5035179;28;45427;-69
2022/12/25 11:57:54;;;;;;;;;15.75;14.50;;;;;12.75;78.79;100204.84;5016682;28;45273;-68
2022/12/25 12:00:20;;;;;;;;;14.00;14.00;;;;;12.76;79.00;100185.44;5034503;28;45305;-69
2022/12/25 12:02:56;;;;;;;;;13.00;13.00;;;;;12.73;78.59;100181.16;5016831;28;45514;-68
2022/12/25 12:05:41;;;;;;;;;13.00;13.00;;;;;12.77;78.52;100185.34;5034696;28;46169;-67
2022/12/25 12:08:08;;;;;;;;;9.00;9.00;;;;;12.80;78.24;100189.63;5034236;28;45391;-69
2022/12/25 12:10:58;;;;;;;;;11.50;11.50;;;;;12.83;78.22;100194.72;5037302;28;45544;-67
2022/12/25 12:13:52;;;;;;;;;16.00;16.00;;;;;12.85;78.33;100180.47;5035875;28;45407;-67
2022/12/25 12:16:17;;;;;;;;;11.75;11.75;;;;;12.87;78.16;100177.78;5033990;28;46519;-66
2022/12/25 12:18:44;;;;;;;;;14.00;14.00;;;;;12.90;78.24;100166.16;5015902;28;45511;-68
2022/12/25 12:21:28;;;;;;;;;11.00;11.00;;;;;12.94;78.22;100170.34;5016524;28;45332;-67
2022/12/25 12:24:05;;;;;;;;;10.25;10.25;;;;;12.95;77.78;100167.63;5034015;28;45298;-66
2022/12/25 12:26:36;;;;;;;;;12.50;12.50;;;;;12.96;77.73;100169.34;5034124;28;46144;-66
2022/12/25 12:29:04;;;;;;;;;13.00;13.00;;;;;12.94;77.89;100152.72;5034983;28;45377;-63
2022/12/25 12:31:46;;;;;;;;;13.50;13.50;;;;;13.03;77.77;100151.34;5033766;28;45284;-67
2022/12/25 12:34:25;;;;;;;;;12.25;12.25;;;;;13.00;77.47;100135.66;5034252;28;45459;-63
2022/12/25 12:36:58;;;;;;;;;11.50;11.50;;;;;13.11;77.70;100151.75;5033528;28;45305;-64
2022/12/25 12:39:34;;;;;;;;;12.00;11.25;;;;;13.14;77.25;100151.56;5033685;28;45482;-63
2022/12/25 12:42:00;;;;;;;;;13.50;13.50;;;;;13.18;77.39;100156.66;5033595;28;45290;-63
2022/12/25 12:44:32;;;;;;;;;11.50;11.50;;;;;13.18;77.26;100160.16;5034339;28;45352;-67
2022/12/25 12:46:58;;;;;;;;;14.25;14.25;;;;;13.15;77.15;100170.91;5015242;28;45999;-70
2022/12/25 12:49:27;;;;;;;;;10.75;10.75;;;;;13.18;76.96;100173.38;5034994;28;45309;-68
2022/12/25 12:52:33;;;;;;;;;11.25;11.25;;;;;13.21;76.93;100153.84;5035380;28;45304;-70
2022/12/25 12:55:08;;;;;;;;;20.00;20.00;;;;;13.23;76.62;100146.69;4977213;28;45536;-70
2022/12/25 12:57:38;;;;;;;;;13.00;13.00;;;;;13.24;76.56;100151.88;5033673;28;45988;-69
2022/12/25 13:00:05;;;;;;;;;11.75;11.75;;;;;13.22;76.15;100137.06;5033138;28;45368;-70
2022/12/25 13:02:56;;;;;;;;;16.25;15.75;;;;;13.33;76.33;100142.59;5033354;28;45243;-65